METAR Nordic - 19 Feb 2018 - 0143 UTC - RocketRoute WX - rrwx.com
EKYT 190120Z AUTO 22006KT 2600NDV -SHRA BR FEW006/// BKN009/// OVC011/// 02/02 Q1019 EKAH 190120Z AUTO 22004KT 190V260 9000NDV OVC029/// 02/00 Q1021 EKBI 190120Z AUTO 19003KT 6000NDV -UP OVC041/// 01/M00 Q1021 EKRN 190120Z AUTO 22011KT 9999NDV BKN042/// 02/M01 Q1024 EKEB 190120Z AUTO 17006KT 1400NDV R08/P1500N R26/P1500N RA BKN018/// 02/01 Q1021 EKKA 190120Z AUTO 17004KT 150V210 3700NDV -RA BR OVC013/// 02/01 Q1020 EKCH 190120Z 22005KT CAVOK 01/M01 Q1022 NOSIG EKOD   EKRK 190120Z AUTO 19002KT 9999NDV FEW100/// BKN120/// M00/M02 Q1022 EKSP 190120Z 23002KT 9999 OVC040 00/M01 Q1021 EKVD   ESTA 190120Z AUTO 16005KT 9999 BKN120/// M02/M03 Q1021 ESNZ 190120Z AUTO 12011KT 9999 -SN OVC034/// M06/M07 Q1022 ESGP   ESGG 190120Z 20004KT 0900 R03/P1500N R21/P1500N FZFG VV003 M00/M01 Q1019 R21/690195 ESMT 190120Z AUTO 22006KT 9999 FEW011/// BKN045/// BKN095/// 01/M00 Q1021 ESMQ 190120Z AUTO 24003KT 2400 -SN FEW017/// SCT029/// M00/M00 Q1023 REUP ESNQ 190120Z AUTO 00000KT 8000 -SN BKN004/// M23/M26 Q1024 ESPA 190120Z AUTO 34002KT 9999 -SHSN FEW025/// OVC050/// M13/M14 Q1028 ESMS 190120Z 20004KT CAVOK M02/M02 Q1022 R17/15//95 ESSL 190120Z AUTO 15003KT 2700 -SN FEW003/// OVC019/// M00/M00 Q1020 ESSA 190120Z 07008KT 1800 -SN BKN005 BKN022 M03/M03 Q1022 R01L/620267 R01R/SNOCLO R08/620164 TEMPO 5000 ESSB 190120Z AUTO 07005KT 5000 -RASN OVC005/// M01/M01 Q1022 ESKN 190120Z 10003KT 9000 OVC040 M01/M02 Q1021 R26/290195 ESNU 190120Z 05003KT 9999 SG BKN003 OVC006 M09/M10 Q1027 R14/71//65 ESSV 190120Z AUTO 22006KT 7000 -SN SCT009/// BKN015/// OVC022/// 00/M01 Q1022 RESG REFZUP ENAN 190120Z AUTO 19011KT 9999 NCD M06/M09 Q1024 ENAT 190050Z AUTO 18005KT 150V210 9999 NCD M19/M22 Q1030 RMK WIND 700FT 18013KT ENHF 190120Z 05003KT CAVOK M09/M12 Q1027 RMK WIND 1254FT VRB01KT ENDU 190120Z AUTO VRB01KT 9999 NCD M24/M26 Q1026 RMK WIND 1100FT 13008KT WIND 2200FT 13011KT ENBO 190050Z 08010KT 9999 FEW040 BKN070 M00/M05 Q1023 ENEV 190120Z AUTO 00000KT 9999 OVC062/// M13/M15 Q1025 RMK WIND 1400FT 14015KT ENBR 190050Z VRB02KT CAVOK M01/M01 Q1019 RMK WIND 1200FT 12007KT ENFL 190120Z AUTO 10008KT 9999NDV FEW049/// 02/01 Q1020 ENGM 190120Z 03005KT 7000 -SN FEW021 BKN027 M04/M05 Q1019 ENHD 190120Z AUTO 10009KT 9999 NCD 00/M00 Q1018 ENCN 190120Z AUTO 06006KT 0200 R03/0800D R21/1800D BCFG FEW000/// SCT007/// M01/M01 Q1019 ENTC 190050Z VRB03KT CAVOK M11/M15 Q1026 RMK WIND 2600FT 13007KT ENFB 190120Z AUTO 13008KT //// OVC054/// 05/03 Q1018 W///S4 ENSB 190050Z 16003KT 110V190 9999 FEW012 BKN016 M10/M12 Q1032 RMK WIND 1400FT 21004KT ENNK   ENRO 190120Z AUTO 10003KT 9999NDV -SHSN OVC005/// M09/M10 Q1019 ENRY 190120Z AUTO 35008KT 9999NDV SCT005/// BKN013/// OVC024/// M00/M01 Q1020 ENZV 190050Z 09002KT 9999 BCFG NSC M02/M02 Q1019 ENVA 190050Z 10007KT CAVOK M11/M13 Q1023 RMK WIND 670FT 14009KT ENAL 190120Z AUTO 16005KT 9999 NCD M01/M01 Q1020 EFET 190120Z AUTO 00000KT 9999 FEW004 M25/M27 Q1027 EFTP 190120Z AUTO VRB03KT CAVOK M17/M20 Q1024 EFTU 190120Z AUTO 05003KT 020V080 6000 -SN OVC005/// M09/M10 Q1024 BIAR 190100Z 16011KT 9999 -RA BKN026 OVC035 03/M01 Q1003 BIEG 190100Z 03006KT 9999 -SN SCT010 BKN022 OVC035 M01/M04 Q1008 R04/710095 BIKF 190130Z 12032G44KT 5000 RA BKN014 OVC032 05/04 Q0989 BIRK 190100Z 09018KT 9999 -RA FEW020 SCT034 OVC058 05/00 Q0991 BGJN 190050Z AUTO 02006KT 9999NDV OVC013/// M15/M18 Q1008 BGSF 190050Z AUTO 05006KT 020V080 9999NDV FEW080/// SCT100/// BKN120/// M26/M29 Q1007 BGKK   BGBW 190050Z AUTO 07005KT 9999NDV BKN100/// BKN110/// M01/M09 Q0988 BGGH 190050Z AUTO 06009KT 9999NDV NCD M11/M13 Q0996 BGTL 190056Z AUTO 09009KT 9999 SCT060 M26/M28 A2974 RMK AO2 SLP064 T12591284 TSNO $ BGSS  

RocketRoute WX - rrwx.com weather for pilots